sensor_id;sensor_type;location;lat;lon;timestamp;P1;durP1;ratioP1;P2;durP2;ratioP2
68763;SDS011;55754;52.038;5.566;2023-02-02T00:01:23;18.08;;;3.58;;
68763;SDS011;55754;52.038;5.566;2023-02-02T00:03:50;13.97;;;2.60;;
68763;SDS011;55754;52.038;5.566;2023-02-02T00:06:19;19.17;;;2.92;;
68763;SDS011;55754;52.038;5.566;2023-02-02T00:08:46;19.88;;;2.95;;
68763;SDS011;55754;52.038;5.566;2023-02-02T00:11:15;15.87;;;2.83;;
68763;SDS011;55754;52.038;5.566;2023-02-02T00:13:41;14.38;;;2.40;;
68763;SDS011;55754;52.038;5.566;2023-02-02T00:18:54;17.80;;;2.63;;
68763;SDS011;55754;52.038;5.566;2023-02-02T00:21:21;22.63;;;3.10;;
68763;SDS011;55754;52.038;5.566;2023-02-02T00:23:47;14.85;;;2.85;;
68763;SDS011;55754;52.038;5.566;2023-02-02T00:26:13;14.33;;;2.60;;
68763;SDS011;55754;52.038;5.566;2023-02-02T00:28:39;21.43;;;2.60;;
68763;SDS011;55754;52.038;5.566;2023-02-02T00:31:04;16.35;;;2.63;;
68763;SDS011;55754;52.038;5.566;2023-02-02T00:33:30;17.77;;;2.83;;
68763;SDS011;55754;52.038;5.566;2023-02-02T00:35:55;17.50;;;2.47;;
68763;SDS011;55754;52.038;5.566;2023-02-02T00:38:21;17.73;;;2.83;;
68763;SDS011;55754;52.038;5.566;2023-02-02T00:40:47;11.43;;;2.20;;
68763;SDS011;55754;52.038;5.566;2023-02-02T00:43:12;10.80;;;2.53;;
68763;SDS011;55754;52.038;5.566;2023-02-02T00:45:38;13.45;;;2.50;;
68763;SDS011;55754;52.038;5.566;2023-02-02T00:48:04;17.13;;;2.50;;
68763;SDS011;55754;52.038;5.566;2023-02-02T00:50:30;13.23;;;2.77;;
68763;SDS011;55754;52.038;5.566;2023-02-02T00:52:55;13.45;;;2.58;;
68763;SDS011;55754;52.038;5.566;2023-02-02T00:55:23;18.02;;;2.70;;
68763;SDS011;55754;52.038;5.566;2023-02-02T00:57:49;11.33;;;2.10;;
68763;SDS011;55754;52.038;5.566;2023-02-02T01:00:16;11.52;;;2.30;;
68763;SDS011;55754;52.038;5.566;2023-02-02T01:02:44;13.32;;;2.80;;
68763;SDS011;55754;52.038;5.566;2023-02-02T01:05:10;14.10;;;2.70;;
68763;SDS011;55754;52.038;5.566;2023-02-02T01:07:37;14.65;;;2.95;;
68763;SDS011;55754;52.038;5.566;2023-02-02T01:10:06;14.30;;;2.92;;
68763;SDS011;55754;52.038;5.566;2023-02-02T01:12:33;15.98;;;2.97;;
68763;SDS011;55754;52.038;5.566;2023-02-02T01:14:59;13.87;;;2.70;;
68763;SDS011;55754;52.038;5.566;2023-02-02T01:17:25;14.65;;;2.42;;
68763;SDS011;55754;52.038;5.566;2023-02-02T01:19:51;11.75;;;2.42;;
68763;SDS011;55754;52.038;5.566;2023-02-02T01:22:17;14.50;;;2.40;;
68763;SDS011;55754;52.038;5.566;2023-02-02T01:24:42;15.70;;;2.60;;
68763;SDS011;55754;52.038;5.566;2023-02-02T01:27:08;13.20;;;2.53;;
68763;SDS011;55754;52.038;5.566;2023-02-02T01:29:33;11.77;;;2.57;;
68763;SDS011;55754;52.038;5.566;2023-02-02T01:31:59;16.00;;;2.70;;
68763;SDS011;55754;52.038;5.566;2023-02-02T01:34:24;11.93;;;2.20;;
68763;SDS011;55754;52.038;5.566;2023-02-02T01:36:50;12.00;;;1.90;;
68763;SDS011;55754;52.038;5.566;2023-02-02T01:39:15;11.63;;;2.00;;
68763;SDS011;55754;52.038;5.566;2023-02-02T01:41:41;9.68;;;1.90;;
68763;SDS011;55754;52.038;5.566;2023-02-02T01:47:10;10.18;;;1.70;;
68763;SDS011;55754;52.038;5.566;2023-02-02T01:49:36;12.88;;;2.13;;
68763;SDS011;55754;52.038;5.566;2023-02-02T01:52:04;7.70;;;1.50;;
68763;SDS011;55754;52.038;5.566;2023-02-02T01:56:59;10.57;;;1.98;;
68763;SDS011;55754;52.038;5.566;2023-02-02T01:59:30;11.85;;;2.00;;
68763;SDS011;55754;52.038;5.566;2023-02-02T02:01:56;13.30;;;2.30;;
68763;SDS011;55754;52.038;5.566;2023-02-02T02:04:22;10.30;;;1.83;;
68763;SDS011;55754;52.038;5.566;2023-02-02T02:06:52;8.45;;;1.55;;
68763;SDS011;55754;52.038;5.566;2023-02-02T02:09:18;10.93;;;1.73;;
68763;SDS011;55754;52.038;5.566;2023-02-02T02:11:44;10.00;;;1.90;;
68763;SDS011;55754;52.038;5.566;2023-02-02T02:14:09;11.50;;;2.10;;
68763;SDS011;55754;52.038;5.566;2023-02-02T02:42:35;8.35;;;1.92;;
68763;SDS011;55754;52.038;5.566;2023-02-02T02:45:04;10.50;;;1.70;;
68763;SDS011;55754;52.038;5.566;2023-02-02T02:47:33;11.73;;;1.85;;
68763;SDS011;55754;52.038;5.566;2023-02-02T02:49:59;9.32;;;1.70;;
68763;SDS011;55754;52.038;5.566;2023-02-02T02:52:25;7.90;;;1.90;;
68763;SDS011;55754;52.038;5.566;2023-02-02T02:54:54;8.68;;;1.95;;
68763;SDS011;55754;52.038;5.566;2023-02-02T02:57:25;10.90;;;1.80;;
68763;SDS011;55754;52.038;5.566;2023-02-02T03:00:17;13.05;;;1.90;;
68763;SDS011;55754;52.038;5.566;2023-02-02T03:03:04;11.48;;;2.13;;
68763;SDS011;55754;52.038;5.566;2023-02-02T03:05:42;13.23;;;2.40;;
68763;SDS011;55754;52.038;5.566;2023-02-02T03:08:47;13.32;;;2.15;;
68763;SDS011;55754;52.038;5.566;2023-02-02T03:11:13;14.00;;;2.80;;
68763;SDS011;55754;52.038;5.566;2023-02-02T03:13:40;12.90;;;2.33;;
68763;SDS011;55754;52.038;5.566;2023-02-02T03:16:07;13.43;;;2.28;;
68763;SDS011;55754;52.038;5.566;2023-02-02T03:18:33;15.20;;;2.40;;
68763;SDS011;55754;52.038;5.566;2023-02-02T03:20:59;15.03;;;3.20;;
68763;SDS011;55754;52.038;5.566;2023-02-02T03:23:25;14.50;;;2.45;;
68763;SDS011;55754;52.038;5.566;2023-02-02T03:25:50;12.17;;;2.57;;
68763;SDS011;55754;52.038;5.566;2023-02-02T03:28:17;12.77;;;2.55;;
68763;SDS011;55754;52.038;5.566;2023-02-02T03:30:44;12.15;;;2.30;;
68763;SDS011;55754;52.038;5.566;2023-02-02T03:33:12;19.02;;;3.15;;
68763;SDS011;55754;52.038;5.566;2023-02-02T03:35:38;16.63;;;3.17;;
68763;SDS011;55754;52.038;5.566;2023-02-02T03:38:07;15.70;;;2.90;;
68763;SDS011;55754;52.038;5.566;2023-02-02T03:40:33;10.38;;;2.85;;
68763;SDS011;55754;52.038;5.566;2023-02-02T03:42:59;14.97;;;2.70;;
68763;SDS011;55754;52.038;5.566;2023-02-02T03:45:27;14.15;;;2.83;;
68763;SDS011;55754;52.038;5.566;2023-02-02T03:47:54;15.43;;;3.20;;
68763;SDS011;55754;52.038;5.566;2023-02-02T03:50:19;14.70;;;2.57;;
68763;SDS011;55754;52.038;5.566;2023-02-02T03:52:45;17.80;;;2.75;;
68763;SDS011;55754;52.038;5.566;2023-02-02T03:55:11;15.80;;;2.80;;
68763;SDS011;55754;52.038;5.566;2023-02-02T03:57:36;15.85;;;2.67;;
68763;SDS011;55754;52.038;5.566;2023-02-02T04:00:02;18.07;;;2.77;;
68763;SDS011;55754;52.038;5.566;2023-02-02T04:02:31;17.75;;;3.20;;
68763;SDS011;55754;52.038;5.566;2023-02-02T04:04:57;18.37;;;3.10;;
68763;SDS011;55754;52.038;5.566;2023-02-02T04:07:22;11.63;;;2.60;;
68763;SDS011;55754;52.038;5.566;2023-02-02T04:09:48;18.83;;;2.92;;
68763;SDS011;55754;52.038;5.566;2023-02-02T04:12:14;12.77;;;2.80;;
68763;SDS011;55754;52.038;5.566;2023-02-02T04:14:39;13.20;;;2.73;;
68763;SDS011;55754;52.038;5.566;2023-02-02T04:17:05;14.40;;;2.50;;
68763;SDS011;55754;52.038;5.566;2023-02-02T04:19:30;17.17;;;3.30;;
68763;SDS011;55754;52.038;5.566;2023-02-02T04:21:56;12.60;;;2.63;;
68763;SDS011;55754;52.038;5.566;2023-02-02T04:24:21;14.18;;;2.80;;
68763;SDS011;55754;52.038;5.566;2023-02-02T04:26:47;16.70;;;3.00;;
68763;SDS011;55754;52.038;5.566;2023-02-02T04:29:12;13.03;;;2.83;;
68763;SDS011;55754;52.038;5.566;2023-02-02T04:31:38;18.52;;;2.90;;
68763;SDS011;55754;52.038;5.566;2023-02-02T04:34:03;19.03;;;2.40;;
68763;SDS011;55754;52.038;5.566;2023-02-02T04:36:29;14.10;;;2.60;;
68763;SDS011;55754;52.038;5.566;2023-02-02T04:38:54;14.98;;;2.90;;
68763;SDS011;55754;52.038;5.566;2023-02-02T04:41:22;12.93;;;2.60;;
68763;SDS011;55754;52.038;5.566;2023-02-02T04:43:48;13.82;;;2.63;;
68763;SDS011;55754;52.038;5.566;2023-02-02T04:46:14;17.23;;;3.10;;
68763;SDS011;55754;52.038;5.566;2023-02-02T04:48:40;18.08;;;2.72;;
68763;SDS011;55754;52.038;5.566;2023-02-02T04:51:07;14.70;;;2.30;;
68763;SDS011;55754;52.038;5.566;2023-02-02T04:53:34;13.40;;;2.60;;
68763;SDS011;55754;52.038;5.566;2023-02-02T04:56:03;12.47;;;2.13;;
68763;SDS011;55754;52.038;5.566;2023-02-02T04:58:34;16.30;;;2.50;;
68763;SDS011;55754;52.038;5.566;2023-02-02T05:00:59;16.43;;;2.77;;
68763;SDS011;55754;52.038;5.566;2023-02-02T05:03:25;16.80;;;3.50;;
68763;SDS011;55754;52.038;5.566;2023-02-02T05:05:51;10.88;;;2.22;;
68763;SDS011;55754;52.038;5.566;2023-02-02T05:08:24;12.07;;;2.90;;
68763;SDS011;55754;52.038;5.566;2023-02-02T05:10:49;13.97;;;2.53;;
68763;SDS011;55754;52.038;5.566;2023-02-02T05:13:15;15.67;;;2.80;;
68763;SDS011;55754;52.038;5.566;2023-02-02T05:15:40;11.40;;;2.10;;
68763;SDS011;55754;52.038;5.566;2023-02-02T05:18:06;14.53;;;2.40;;
68763;SDS011;55754;52.038;5.566;2023-02-02T05:20:31;15.90;;;2.37;;
68763;SDS011;55754;52.038;5.566;2023-02-02T05:22:57;13.43;;;2.55;;
68763;SDS011;55754;52.038;5.566;2023-02-02T05:25:22;13.80;;;2.80;;
68763;SDS011;55754;52.038;5.566;2023-02-02T05:27:48;12.37;;;2.63;;
68763;SDS011;55754;52.038;5.566;2023-02-02T05:30:16;13.93;;;3.10;;
68763;SDS011;55754;52.038;5.566;2023-02-02T05:32:42;15.53;;;3.13;;
68763;SDS011;55754;52.038;5.566;2023-02-02T05:35:08;13.98;;;2.80;;
68763;SDS011;55754;52.038;5.566;2023-02-02T05:37:34;12.30;;;2.60;;
68763;SDS011;55754;52.038;5.566;2023-02-02T05:39:59;32.00;;;12.23;;
68763;SDS011;55754;52.038;5.566;2023-02-02T05:42:25;19.20;;;6.90;;
68763;SDS011;55754;52.038;5.566;2023-02-02T05:44:50;15.48;;;3.60;;
68763;SDS011;55754;52.038;5.566;2023-02-02T05:47:16;20.67;;;6.30;;
68763;SDS011;55754;52.038;5.566;2023-02-02T05:49:41;14.70;;;4.37;;
68763;SDS011;55754;52.038;5.566;2023-02-02T05:52:08;18.67;;;3.30;;
68763;SDS011;55754;52.038;5.566;2023-02-02T05:54:39;14.33;;;2.93;;
68763;SDS011;55754;52.038;5.566;2023-02-02T05:57:05;15.93;;;2.75;;
68763;SDS011;55754;52.038;5.566;2023-02-02T05:59:30;13.17;;;2.77;;
68763;SDS011;55754;52.038;5.566;2023-02-02T06:01:56;17.70;;;2.47;;
68763;SDS011;55754;52.038;5.566;2023-02-02T06:04:21;9.63;;;2.22;;
68763;SDS011;55754;52.038;5.566;2023-02-02T06:06:47;15.67;;;2.80;;
68763;SDS011;55754;52.038;5.566;2023-02-02T06:09:12;13.83;;;2.50;;
68763;SDS011;55754;52.038;5.566;2023-02-02T06:11:38;15.48;;;2.47;;
68763;SDS011;55754;52.038;5.566;2023-02-02T06:14:04;14.30;;;2.70;;
68763;SDS011;55754;52.038;5.566;2023-02-02T06:16:30;14.90;;;2.38;;
68763;SDS011;55754;52.038;5.566;2023-02-02T06:18:58;12.27;;;2.10;;
68763;SDS011;55754;52.038;5.566;2023-02-02T06:21:24;10.77;;;2.20;;
68763;SDS011;55754;52.038;5.566;2023-02-02T06:23:50;12.47;;;2.00;;
68763;SDS011;55754;52.038;5.566;2023-02-02T06:26:16;10.63;;;2.10;;
68763;SDS011;55754;52.038;5.566;2023-02-02T06:28:42;16.13;;;2.35;;
68763;SDS011;55754;52.038;5.566;2023-02-02T06:31:11;13.85;;;2.65;;
68763;SDS011;55754;52.038;5.566;2023-02-02T06:33:37;10.80;;;2.23;;
68763;SDS011;55754;52.038;5.566;2023-02-02T06:36:03;15.85;;;2.33;;
68763;SDS011;55754;52.038;5.566;2023-02-02T06:38:30;13.73;;;2.30;;
68763;SDS011;55754;52.038;5.566;2023-02-02T06:40:59;12.50;;;2.10;;
68763;SDS011;55754;52.038;5.566;2023-02-02T06:43:26;11.48;;;2.15;;
68763;SDS011;55754;52.038;5.566;2023-02-02T06:45:52;13.40;;;2.88;;
68763;SDS011;55754;52.038;5.566;2023-02-02T06:48:18;10.23;;;2.33;;
68763;SDS011;55754;52.038;5.566;2023-02-02T06:50:43;13.60;;;2.30;;
68763;SDS011;55754;52.038;5.566;2023-02-02T06:53:09;19.80;;;2.85;;
68763;SDS011;55754;52.038;5.566;2023-02-02T06:55:34;11.13;;;2.20;;
68763;SDS011;55754;52.038;5.566;2023-02-02T06:58:00;12.20;;;2.50;;
68763;SDS011;55754;52.038;5.566;2023-02-02T07:00:27;11.07;;;2.20;;
68763;SDS011;55754;52.038;5.566;2023-02-02T07:02:53;11.30;;;2.53;;
68763;SDS011;55754;52.038;5.566;2023-02-02T07:05:19;14.10;;;2.60;;
68763;SDS011;55754;52.038;5.566;2023-02-02T07:07:47;12.87;;;2.50;;
68763;SDS011;55754;52.038;5.566;2023-02-02T07:10:14;10.80;;;2.40;;
68763;SDS011;55754;52.038;5.566;2023-02-02T07:12:40;9.73;;;2.25;;
68763;SDS011;55754;52.038;5.566;2023-02-02T07:15:05;14.70;;;2.77;;
68763;SDS011;55754;52.038;5.566;2023-02-02T07:17:31;12.07;;;2.80;;
68763;SDS011;55754;52.038;5.566;2023-02-02T07:19:57;14.73;;;2.57;;
68763;SDS011;55754;52.038;5.566;2023-02-02T07:22:23;14.27;;;2.65;;
68763;SDS011;55754;52.038;5.566;2023-02-02T07:24:48;11.13;;;2.70;;
68763;SDS011;55754;52.038;5.566;2023-02-02T07:27:14;11.10;;;2.30;;
68763;SDS011;55754;52.038;5.566;2023-02-02T07:29:39;10.95;;;2.50;;
68763;SDS011;55754;52.038;5.566;2023-02-02T07:32:05;14.47;;;2.77;;
68763;SDS011;55754;52.038;5.566;2023-02-02T07:34:31;10.68;;;2.90;;
68763;SDS011;55754;52.038;5.566;2023-02-02T07:36:56;9.33;;;2.17;;
68763;SDS011;55754;52.038;5.566;2023-02-02T07:39:22;11.40;;;2.57;;
68763;SDS011;55754;52.038;5.566;2023-02-02T07:41:47;10.95;;;2.58;;
68763;SDS011;55754;52.038;5.566;2023-02-02T07:44:13;13.80;;;3.13;;
68763;SDS011;55754;52.038;5.566;2023-02-02T07:46:43;14.18;;;3.28;;
68763;SDS011;55754;52.038;5.566;2023-02-02T07:49:13;17.60;;;2.95;;
68763;SDS011;55754;52.038;5.566;2023-02-02T07:51:40;13.82;;;2.90;;
68763;SDS011;55754;52.038;5.566;2023-02-02T07:54:07;12.33;;;2.97;;
68763;SDS011;55754;52.038;5.566;2023-02-02T07:56:33;13.50;;;2.53;;
68763;SDS011;55754;52.038;5.566;2023-02-02T07:58:59;16.42;;;2.63;;
68763;SDS011;55754;52.038;5.566;2023-02-02T08:01:25;15.20;;;2.87;;
68763;SDS011;55754;52.038;5.566;2023-02-02T08:03:52;16.02;;;2.80;;
68763;SDS011;55754;52.038;5.566;2023-02-02T08:06:26;11.20;;;2.45;;
68763;SDS011;55754;52.038;5.566;2023-02-02T08:08:54;15.77;;;3.05;;
68763;SDS011;55754;52.038;5.566;2023-02-02T08:11:20;11.13;;;2.10;;
68763;SDS011;55754;52.038;5.566;2023-02-02T08:13:47;16.98;;;2.97;;
68763;SDS011;55754;52.038;5.566;2023-02-02T08:16:14;19.77;;;2.72;;
68763;SDS011;55754;52.038;5.566;2023-02-02T08:18:40;11.13;;;2.33;;
68763;SDS011;55754;52.038;5.566;2023-02-02T08:21:08;17.80;;;3.00;;
68763;SDS011;55754;52.038;5.566;2023-02-02T08:23:38;13.30;;;2.47;;
68763;SDS011;55754;52.038;5.566;2023-02-02T08:26:15;15.25;;;2.75;;
68763;SDS011;55754;52.038;5.566;2023-02-02T08:28:43;15.85;;;2.53;;
68763;SDS011;55754;52.038;5.566;2023-02-02T08:31:13;14.50;;;2.40;;
68763;SDS011;55754;52.038;5.566;2023-02-02T08:33:43;13.27;;;2.55;;
68763;SDS011;55754;52.038;5.566;2023-02-02T08:36:13;17.17;;;3.08;;
68763;SDS011;55754;52.038;5.566;2023-02-02T08:38:43;14.48;;;2.67;;
68763;SDS011;55754;52.038;5.566;2023-02-02T08:41:10;12.80;;;2.28;;
68763;SDS011;55754;52.038;5.566;2023-02-02T08:43:37;12.50;;;2.37;;
68763;SDS011;55754;52.038;5.566;2023-02-02T08:46:04;15.13;;;2.97;;
68763;SDS011;55754;52.038;5.566;2023-02-02T08:48:30;15.30;;;2.78;;
68763;SDS011;55754;52.038;5.566;2023-02-02T08:50:56;11.53;;;2.53;;
68763;SDS011;55754;52.038;5.566;2023-02-02T08:53:23;15.52;;;2.78;;
68763;SDS011;55754;52.038;5.566;2023-02-02T08:55:59;15.05;;;2.97;;
68763;SDS011;55754;52.038;5.566;2023-02-02T08:58:26;15.50;;;2.72;;
68763;SDS011;55754;52.038;5.566;2023-02-02T09:00:53;14.38;;;2.33;;
68763;SDS011;55754;52.038;5.566;2023-02-02T09:03:18;14.97;;;2.30;;
68763;SDS011;55754;52.038;5.566;2023-02-02T09:05:44;12.20;;;2.40;;
68763;SDS011;55754;52.038;5.566;2023-02-02T09:08:10;12.80;;;2.20;;
68763;SDS011;55754;52.038;5.566;2023-02-02T09:10:36;16.02;;;2.80;;
68763;SDS011;55754;52.038;5.566;2023-02-02T09:13:02;15.93;;;2.50;;
68763;SDS011;55754;52.038;5.566;2023-02-02T09:15:28;13.63;;;2.25;;
68763;SDS011;55754;52.038;5.566;2023-02-02T09:17:54;15.68;;;2.58;;
68763;SDS011;55754;52.038;5.566;2023-02-02T09:20:20;12.30;;;2.27;;
68763;SDS011;55754;52.038;5.566;2023-02-02T09:22:46;13.95;;;2.47;;
68763;SDS011;55754;52.038;5.566;2023-02-02T09:25:11;17.02;;;2.30;;
68763;SDS011;55754;52.038;5.566;2023-02-02T09:27:37;10.30;;;2.40;;
68763;SDS011;55754;52.038;5.566;2023-02-02T09:30:05;12.02;;;2.20;;
68763;SDS011;55754;52.038;5.566;2023-02-02T09:32:31;13.07;;;2.50;;
68763;SDS011;55754;52.038;5.566;2023-02-02T09:34:58;12.70;;;2.57;;
68763;SDS011;55754;52.038;5.566;2023-02-02T09:37:24;12.88;;;2.25;;
68763;SDS011;55754;52.038;5.566;2023-02-02T09:39:50;14.65;;;2.30;;
68763;SDS011;55754;52.038;5.566;2023-02-02T09:45:15;13.18;;;2.70;;
68763;SDS011;55754;52.038;5.566;2023-02-02T09:47:53;13.32;;;2.20;;
68763;SDS011;55754;52.038;5.566;2023-02-02T09:55:34;13.10;;;2.13;;
68763;SDS011;55754;52.038;5.566;2023-02-02T09:58:06;17.25;;;2.80;;
68763;SDS011;55754;52.038;5.566;2023-02-02T10:00:41;10.95;;;2.30;;
68763;SDS011;55754;52.038;5.566;2023-02-02T10:03:52;12.32;;;2.72;;
68763;SDS011;55754;52.038;5.566;2023-02-02T10:06:34;13.05;;;2.50;;
68763;SDS011;55754;52.038;5.566;2023-02-02T10:20:47;14.85;;;2.60;;
68763;SDS011;55754;52.038;5.566;2023-02-02T10:23:21;15.60;;;2.53;;
68763;SDS011;55754;52.038;5.566;2023-02-02T10:28:50;14.20;;;2.60;;
68763;SDS011;55754;52.038;5.566;2023-02-02T10:34:41;14.55;;;3.00;;
68763;SDS011;55754;52.038;5.566;2023-02-02T10:37:20;11.37;;;2.60;;
68763;SDS011;55754;52.038;5.566;2023-02-02T10:45:47;12.13;;;2.58;;
68763;SDS011;55754;52.038;5.566;2023-02-02T10:48:19;11.30;;;2.70;;
68763;SDS011;55754;52.038;5.566;2023-02-02T10:50:57;13.60;;;2.90;;
68763;SDS011;55754;52.038;5.566;2023-02-02T10:53:27;15.05;;;3.15;;
68763;SDS011;55754;52.038;5.566;2023-02-02T10:55:55;12.75;;;2.78;;
68763;SDS011;55754;52.038;5.566;2023-02-02T10:58:27;11.18;;;2.40;;
68763;SDS011;55754;52.038;5.566;2023-02-02T11:00:56;13.45;;;2.78;;
68763;SDS011;55754;52.038;5.566;2023-02-02T11:03:28;12.33;;;2.80;;
68763;SDS011;55754;52.038;5.566;2023-02-02T11:05:57;15.25;;;2.78;;
68763;SDS011;55754;52.038;5.566;2023-02-02T11:08:48;15.15;;;2.72;;
68763;SDS011;55754;52.038;5.566;2023-02-02T11:11:39;13.23;;;2.33;;
68763;SDS011;55754;52.038;5.566;2023-02-02T11:16:35;14.77;;;2.80;;
68763;SDS011;55754;52.038;5.566;2023-02-02T11:19:20;17.58;;;2.70;;
68763;SDS011;55754;52.038;5.566;2023-02-02T11:21:49;12.57;;;2.37;;
68763;SDS011;55754;52.038;5.566;2023-02-02T11:24:23;11.98;;;2.60;;
68763;SDS011;55754;52.038;5.566;2023-02-02T11:26:56;16.30;;;3.25;;
68763;SDS011;55754;52.038;5.566;2023-02-02T11:29:33;12.00;;;2.53;;
68763;SDS011;55754;52.038;5.566;2023-02-02T11:34:44;12.03;;;2.40;;
68763;SDS011;55754;52.038;5.566;2023-02-02T11:37:11;13.63;;;2.60;;
68763;SDS011;55754;52.038;5.566;2023-02-02T11:39:39;14.77;;;3.03;;
68763;SDS011;55754;52.038;5.566;2023-02-02T11:42:21;14.27;;;3.20;;
68763;SDS011;55754;52.038;5.566;2023-02-02T11:44:53;9.83;;;2.47;;
68763;SDS011;55754;52.038;5.566;2023-02-02T11:47:28;13.00;;;2.17;;
68763;SDS011;55754;52.038;5.566;2023-02-02T11:49:55;12.30;;;2.30;;
68763;SDS011;55754;52.038;5.566;2023-02-02T11:52:25;11.50;;;2.20;;
68763;SDS011;55754;52.038;5.566;2023-02-02T11:54:56;14.98;;;2.70;;
68763;SDS011;55754;52.038;5.566;2023-02-02T11:57:25;13.00;;;2.23;;
68763;SDS011;55754;52.038;5.566;2023-02-02T12:02:36;10.70;;;2.05;;
68763;SDS011;55754;52.038;5.566;2023-02-02T12:07:34;13.70;;;2.40;;
68763;SDS011;55754;52.038;5.566;2023-02-02T12:13:30;15.27;;;2.67;;
68763;SDS011;55754;52.038;5.566;2023-02-02T12:19:17;12.30;;;2.17;;
68763;SDS011;55754;52.038;5.566;2023-02-02T12:24:49;12.95;;;2.08;;
68763;SDS011;55754;52.038;5.566;2023-02-02T12:27:31;12.07;;;2.38;;
68763;SDS011;55754;52.038;5.566;2023-02-02T12:32:57;8.90;;;2.07;;
68763;SDS011;55754;52.038;5.566;2023-02-02T12:38:30;12.05;;;1.95;;
68763;SDS011;55754;52.038;5.566;2023-02-02T12:58:00;12.57;;;2.15;;
68763;SDS011;55754;52.038;5.566;2023-02-02T13:09:06;13.15;;;1.88;;
68763;SDS011;55754;52.038;5.566;2023-02-02T13:11:45;11.50;;;2.30;;
68763;SDS011;55754;52.038;5.566;2023-02-02T13:14:23;11.10;;;2.10;;
68763;SDS011;55754;52.038;5.566;2023-02-02T13:16:55;15.25;;;2.67;;
68763;SDS011;55754;52.038;5.566;2023-02-02T13:20:13;11.63;;;3.03;;
68763;SDS011;55754;52.038;5.566;2023-02-02T13:22:23;11.68;;;2.05;;
68763;SDS011;55754;52.038;5.566;2023-02-02T13:24:53;10.07;;;2.25;;
68763;SDS011;55754;52.038;5.566;2023-02-02T13:27:22;13.13;;;2.67;;
68763;SDS011;55754;52.038;5.566;2023-02-02T13:29:56;11.48;;;2.22;;
68763;SDS011;55754;52.038;5.566;2023-02-02T13:32:33;11.10;;;2.50;;
68763;SDS011;55754;52.038;5.566;2023-02-02T13:37:57;11.65;;;2.50;;
68763;SDS011;55754;52.038;5.566;2023-02-02T13:40:27;13.63;;;3.20;;
68763;SDS011;55754;52.038;5.566;2023-02-02T13:48:35;11.13;;;2.65;;
68763;SDS011;55754;52.038;5.566;2023-02-02T14:02:42;10.00;;;3.05;;
68763;SDS011;55754;52.038;5.566;2023-02-02T14:07:46;11.50;;;3.37;;
68763;SDS011;55754;52.038;5.566;2023-02-02T14:10:55;7.88;;;2.72;;
68763;SDS011;55754;52.038;5.566;2023-02-02T14:13:14;7.18;;;2.30;;
68763;SDS011;55754;52.038;5.566;2023-02-02T14:16:02;6.18;;;2.30;;
68763;SDS011;55754;52.038;5.566;2023-02-02T14:26:39;6.53;;;2.38;;
68763;SDS011;55754;52.038;5.566;2023-02-02T14:29:32;6.50;;;1.92;;
68763;SDS011;55754;52.038;5.566;2023-02-02T14:31:57;5.97;;;1.85;;
68763;SDS011;55754;52.038;5.566;2023-02-02T14:39:36;6.78;;;2.13;;
68763;SDS011;55754;52.038;5.566;2023-02-02T14:47:46;7.73;;;3.37;;
68763;SDS011;55754;52.038;5.566;2023-02-02T14:50:14;5.70;;;2.58;;
68763;SDS011;55754;52.038;5.566;2023-02-02T14:53:02;7.00;;;2.33;;
68763;SDS011;55754;52.038;5.566;2023-02-02T14:55:52;5.35;;;2.20;;
68763;SDS011;55754;52.038;5.566;2023-02-02T15:17:32;6.40;;;2.40;;
68763;SDS011;55754;52.038;5.566;2023-02-02T15:20:23;5.63;;;2.08;;
68763;SDS011;55754;52.038;5.566;2023-02-02T15:25:20;4.55;;;1.80;;
68763;SDS011;55754;52.038;5.566;2023-02-02T15:28:19;4.47;;;1.90;;
68763;SDS011;55754;52.038;5.566;2023-02-02T15:33:42;4.80;;;1.92;;
68763;SDS011;55754;52.038;5.566;2023-02-02T15:38:44;5.00;;;2.13;;
68763;SDS011;55754;52.038;5.566;2023-02-02T15:41:31;7.23;;;2.50;;
68763;SDS011;55754;52.038;5.566;2023-02-02T15:44:00;4.50;;;2.10;;
68763;SDS011;55754;52.038;5.566;2023-02-02T15:46:27;5.70;;;2.50;;
68763;SDS011;55754;52.038;5.566;2023-02-02T15:49:21;5.55;;;2.20;;
68763;SDS011;55754;52.038;5.566;2023-02-02T15:51:56;6.63;;;2.53;;
68763;SDS011;55754;52.038;5.566;2023-02-02T15:54:25;5.20;;;2.60;;
68763;SDS011;55754;52.038;5.566;2023-02-02T15:56:53;27.30;;;18.17;;
68763;SDS011;55754;52.038;5.566;2023-02-02T15:59:22;21.02;;;11.40;;
68763;SDS011;55754;52.038;5.566;2023-02-02T16:01:59;17.38;;;8.40;;
68763;SDS011;55754;52.038;5.566;2023-02-02T16:04:34;21.53;;;12.57;;
68763;SDS011;55754;52.038;5.566;2023-02-02T16:07:05;63.63;;;32.50;;
68763;SDS011;55754;52.038;5.566;2023-02-02T16:09:40;38.55;;;24.38;;
68763;SDS011;55754;52.038;5.566;2023-02-02T16:12:11;26.70;;;18.30;;
68763;SDS011;55754;52.038;5.566;2023-02-02T16:14:48;16.15;;;10.30;;
68763;SDS011;55754;52.038;5.566;2023-02-02T16:17:36;21.15;;;14.30;;
68763;SDS011;55754;52.038;5.566;2023-02-02T16:20:03;19.15;;;12.50;;
68763;SDS011;55754;52.038;5.566;2023-02-02T16:22:37;72.10;;;46.08;;
68763;SDS011;55754;52.038;5.566;2023-02-02T16:25:07;53.97;;;28.37;;
68763;SDS011;55754;52.038;5.566;2023-02-02T16:27:37;17.70;;;8.65;;
68763;SDS011;55754;52.038;5.566;2023-02-02T16:30:08;10.98;;;4.70;;
68763;SDS011;55754;52.038;5.566;2023-02-02T16:32:50;9.75;;;4.95;;
68763;SDS011;55754;52.038;5.566;2023-02-02T16:35:32;16.07;;;8.23;;
68763;SDS011;55754;52.038;5.566;2023-02-02T16:38:10;21.80;;;12.77;;
68763;SDS011;55754;52.038;5.566;2023-02-02T16:40:46;15.70;;;6.97;;
68763;SDS011;55754;52.038;5.566;2023-02-02T16:43:26;15.57;;;9.33;;
68763;SDS011;55754;52.038;5.566;2023-02-02T16:48:25;84.13;;;55.85;;
68763;SDS011;55754;52.038;5.566;2023-02-02T16:51:35;26.58;;;16.70;;
68763;SDS011;55754;52.038;5.566;2023-02-02T16:56:45;20.23;;;8.88;;
68763;SDS011;55754;52.038;5.566;2023-02-02T17:02:15;16.60;;;8.55;;
68763;SDS011;55754;52.038;5.566;2023-02-02T17:05:05;23.20;;;11.68;;
68763;SDS011;55754;52.038;5.566;2023-02-02T17:07:46;45.27;;;18.03;;
68763;SDS011;55754;52.038;5.566;2023-02-02T17:10:21;165.73;;;82.70;;
68763;SDS011;55754;52.038;5.566;2023-02-02T17:12:47;115.85;;;62.72;;
68763;SDS011;55754;52.038;5.566;2023-02-02T17:17:42;50.63;;;29.40;;
68763;SDS011;55754;52.038;5.566;2023-02-02T17:20:08;52.58;;;29.58;;
68763;SDS011;55754;52.038;5.566;2023-02-02T17:22:39;39.40;;;22.95;;
68763;SDS011;55754;52.038;5.566;2023-02-02T17:25:15;36.13;;;18.13;;
68763;SDS011;55754;52.038;5.566;2023-02-02T17:27:43;28.70;;;13.75;;
68763;SDS011;55754;52.038;5.566;2023-02-02T17:30:13;15.45;;;7.20;;
68763;SDS011;55754;52.038;5.566;2023-02-02T17:32:40;27.25;;;15.70;;
68763;SDS011;55754;52.038;5.566;2023-02-02T17:35:12;25.07;;;10.27;;
68763;SDS011;55754;52.038;5.566;2023-02-02T17:37:41;15.32;;;7.20;;
68763;SDS011;55754;52.038;5.566;2023-02-02T17:40:11;21.17;;;10.47;;
68763;SDS011;55754;52.038;5.566;2023-02-02T17:42:41;20.33;;;9.68;;
68763;SDS011;55754;52.038;5.566;2023-02-02T17:45:09;20.20;;;6.18;;
68763;SDS011;55754;52.038;5.566;2023-02-02T17:47:42;20.05;;;6.30;;
68763;SDS011;55754;52.038;5.566;2023-02-02T17:50:08;18.30;;;6.97;;
68763;SDS011;55754;52.038;5.566;2023-02-02T17:52:34;16.88;;;8.05;;
68763;SDS011;55754;52.038;5.566;2023-02-02T17:55:02;16.13;;;6.93;;
68763;SDS011;55754;52.038;5.566;2023-02-02T17:57:38;24.65;;;8.95;;
68763;SDS011;55754;52.038;5.566;2023-02-02T18:00:04;21.80;;;7.80;;
68763;SDS011;55754;52.038;5.566;2023-02-02T18:02:30;20.92;;;10.00;;
68763;SDS011;55754;52.038;5.566;2023-02-02T18:04:55;18.92;;;8.30;;
68763;SDS011;55754;52.038;5.566;2023-02-02T18:07:21;16.47;;;7.10;;